Time;durP1;ratioP1;P1;durP2;ratioP2;P2;SDS_P1;SDS_P2;PMS_P1;PMS_P2;Temp;Humidity;BMP_temperature;BMP_pressure;BME280_temperature;BME280_humidity;BME280_pressure;Samples;Min_cycle;Max_cycle;Signal;HPM_P1;HPM_P2
2021/12/22 00:00:16;;;;;;;7.03;2.88;;;;;;;-3.68;83.02;101940.84;5113957;27;20044;-56
2021/12/22 00:02:46;;;;;;;7.22;2.97;;;;;;;-3.70;83.38;101934.81;5112043;27;20412;-55
2021/12/22 00:05:16;;;;;;;7.15;3.05;;;;;;;-3.69;83.73;101949.25;5097633;27;20365;-55
2021/12/22 00:07:43;;;;;;;7.22;2.80;;;;;;;-3.70;83.54;101947.47;5106999;27;21912;-56
2021/12/22 00:10:10;;;;;;;6.47;2.72;;;;;;;-3.71;83.50;101951.66;5106590;27;20467;-56
2021/12/22 00:12:37;;;;;;;8.57;3.20;;;;;;;-3.73;83.50;101952.34;5111481;27;20040;-56
2021/12/22 00:15:07;;;;;;;6.70;2.35;;;;;;;-3.75;83.52;101958.97;5118194;27;20043;-56
2021/12/22 00:17:35;;;;;;;7.20;2.65;;;;;;;-3.76;83.64;101953.00;5101361;27;20039;-56
2021/12/22 00:20:02;;;;;;;4.82;2.80;;;;;;;-3.75;83.93;101959.84;5099418;27;20424;-55
2021/12/22 00:22:29;;;;;;;4.60;1.92;;;;;;;-3.78;83.91;101952.03;5099125;28;20062;-56
2021/12/22 00:24:56;;;;;;;6.80;2.80;;;;;;;-3.80;84.14;101953.56;5101853;28;20053;-57
2021/12/22 00:27:23;;;;;;;9.05;2.78;;;;;;;-3.81;83.93;101952.69;5100524;28;20050;-56
2021/12/22 00:29:52;;;;;;;8.32;4.20;;;;;;;-3.81;84.38;101962.84;5092212;28;20054;-56
2021/12/22 00:32:21;;;;;;;6.55;2.53;;;;;;;-3.82;84.00;101955.13;5103487;28;20048;-57
2021/12/22 00:34:52;;;;;;;8.13;2.22;;;;;;;-3.82;84.00;101957.66;5098461;27;20117;-56
2021/12/22 00:37:21;;;;;;;7.28;2.22;;;;;;;-3.82;83.92;101963.59;5095859;27;20047;-56
2021/12/22 00:39:50;;;;;;;6.18;2.33;;;;;;;-3.81;84.36;101967.91;5106723;27;20480;-55
2021/12/22 00:42:17;;;;;;;6.75;2.05;;;;;;;-3.81;84.30;101970.44;5104211;27;20047;-55
2021/12/22 00:44:49;;;;;;;5.30;2.72;;;;;;;-3.81;84.53;101978.03;5110631;27;20424;-56
2021/12/22 00:47:17;;;;;;;4.68;2.00;;;;;;;-3.79;84.83;101974.72;5102037;27;20088;-56
2021/12/22 00:49:46;;;;;;;6.00;2.40;;;;;;;-3.78;84.57;101981.56;5095519;27;20052;-55
2021/12/22 00:52:15;;;;;;;6.45;2.40;;;;;;;-3.76;84.83;101980.88;5109896;27;20620;-57
2021/12/22 00:54:42;;;;;;;7.25;2.60;;;;;;;-3.74;85.12;101986.06;5127080;27;20057;-56
2021/12/22 00:57:10;;;;;;;11.18;2.83;;;;;;;-3.72;85.15;101987.03;5114317;27;20070;-56
2021/12/22 00:59:38;;;;;;;6.47;2.42;;;;;;;-3.68;85.12;101981.41;5117921;27;20555;-54
2021/12/22 01:02:08;;;;;;;8.23;3.03;;;;;;;-3.67;85.08;101985.69;5123717;27;20043;-56
2021/12/22 01:04:36;;;;;;;7.10;2.70;;;;;;;-3.67;85.07;101983.16;5120704;27;20051;-57
2021/12/22 01:07:05;;;;;;;6.80;2.97;;;;;;;-3.61;85.41;101988.69;5118477;27;20468;-56
2021/12/22 01:09:33;;;;;;;9.38;3.28;;;;;;;-3.58;85.26;101988.91;5120265;27;20063;-56
2021/12/22 01:12:01;;;;;;;8.35;2.97;;;;;;;-3.56;85.66;101992.41;5115375;27;20393;-55
2021/12/22 01:14:28;;;;;;;6.75;3.25;;;;;;;-3.55;85.86;101997.59;5117158;27;20393;-56
2021/12/22 01:16:58;;;;;;;7.38;3.17;;;;;;;-3.51;86.15;101993.59;5121478;27;20534;-57
2021/12/22 01:19:33;;;;;;;12.57;3.38;;;;;;;-3.45;86.06;101995.66;5128326;27;20044;-57
2021/12/22 01:22:06;;;;;;;11.93;3.85;;;;;;;-3.43;86.17;101994.13;5124345;27;20052;-57
2021/12/22 01:24:35;;;;;;;8.32;2.70;;;;;;;-3.41;85.89;101993.44;5121186;27;20059;-57
2021/12/22 01:27:08;;;;;;;7.47;2.90;;;;;;;-3.39;85.96;101991.91;5117351;27;20051;-56
2021/12/22 01:29:38;;;;;;;7.88;3.30;;;;;;;-3.36;86.03;101992.09;5120087;27;20051;-56
2021/12/22 01:32:08;;;;;;;9.63;2.97;;;;;;;-3.33;86.18;101987.22;5116148;27;20148;-54
2021/12/22 01:34:36;;;;;;;7.30;3.10;;;;;;;-3.30;86.05;101986.56;5117820;27;20039;-57
2021/12/22 01:37:03;;;;;;;6.93;2.75;;;;;;;-3.27;85.62;101980.03;5118500;27;20051;-56
2021/12/22 01:39:30;;;;;;;4.55;2.70;;;;;;;-3.25;85.66;101981.00;5119806;27;20069;-56
2021/12/22 01:41:59;;;;;;;6.95;3.60;;;;;;;-3.21;85.59;101988.03;5115378;27;20051;-56
2021/12/22 01:44:33;;;;;;;7.90;2.88;;;;;;;-3.17;85.28;101994.19;5124816;27;20036;-55
2021/12/22 01:49:50;;;;;;;8.73;3.35;;;;;;;-3.08;85.95;101999.03;5115461;27;20104;-56
2021/12/22 01:52:19;;;;;;;7.93;3.28;;;;;;;-3.04;86.29;101993.38;5120170;27;20450;-56
2021/12/22 01:54:51;;;;;;;8.55;3.60;;;;;;;-3.01;86.46;101991.06;5115375;27;20162;-56
2021/12/22 01:57:21;;;;;;;7.20;3.05;;;;;;;-2.98;86.95;101981.09;5114283;27;20051;-56
2021/12/22 01:59:50;;;;;;;9.30;3.55;;;;;;;-2.96;86.92;101988.03;5114864;27;20058;-56
2021/12/22 02:02:18;;;;;;;6.88;3.13;;;;;;;-2.92;86.48;101984.91;5112977;27;20062;-56
2021/12/22 02:04:45;;;;;;;8.90;3.40;;;;;;;-2.89;87.01;101971.56;5114699;27;20055;-57
2021/12/22 02:07:14;;;;;;;9.15;3.72;;;;;;;-2.85;86.48;101978.59;5114194;27;20055;-56
2021/12/22 02:10:01;;;;;;;8.35;3.45;;;;;;;-2.84;86.26;101985.41;5114063;27;20074;-56
2021/12/22 02:12:34;;;;;;;9.95;3.70;;;;;;;-2.82;85.38;101973.72;5115239;27;20044;-57
2021/12/22 02:15:04;;;;;;;10.00;3.97;;;;;;;-2.81;85.17;101970.38;5115964;27;20044;-57
2021/12/22 02:17:31;;;;;;;9.63;3.63;;;;;;;-2.80;85.03;101974.69;5117621;27;20149;-56
2021/12/22 02:20:00;;;;;;;7.80;3.75;;;;;;;-2.82;83.99;101973.72;5121088;27;20051;-56
2021/12/22 02:22:28;;;;;;;10.80;3.40;;;;;;;-2.84;83.87;101970.19;5121142;27;20046;-56
2021/12/22 02:25:01;;;;;;;7.55;3.85;;;;;;;-2.88;83.41;101969.13;5116552;27;20126;-57
2021/12/22 02:27:33;;;;;;;9.07;4.03;;;;;;;-2.89;82.71;101969.03;5117317;27;20054;-56
2021/12/22 02:30:03;;;;;;;9.05;3.70;;;;;;;-2.91;82.69;101962.97;5115878;27;20052;-58
2021/12/22 02:33:08;;;;;;;8.50;3.78;;;;;;;-2.94;82.83;101962.75;5113793;27;20468;-56
2021/12/22 02:35:43;;;;;;;8.07;3.67;;;;;;;-2.96;82.70;101970.28;5115070;27;20062;-55
2021/12/22 02:38:16;;;;;;;8.73;3.20;;;;;;;-2.99;82.49;101964.13;5118164;27;20595;-56
2021/12/22 02:40:45;;;;;;;7.15;3.10;;;;;;;-3.04;82.10;101968.03;5121439;27;20130;-56
2021/12/22 02:43:18;;;;;;;5.80;2.65;;;;;;;-3.07;82.65;101973.78;5117808;27;20047;-55
2021/12/22 02:45:45;;;;;;;5.82;2.67;;;;;;;-3.07;83.08;101970.34;5126717;27;20055;-56
2021/12/22 02:48:12;;;;;;;10.25;3.03;;;;;;;-3.09;82.82;101972.78;5122858;27;20039;-55
2021/12/22 02:50:41;;;;;;;7.63;2.78;;;;;;;-3.08;83.55;101978.75;5113203;27;20056;-52
2021/12/22 02:53:12;;;;;;;7.07;2.40;;;;;;;-3.08;83.82;101974.56;5114104;27;20058;-57
2021/12/22 02:55:47;;;;;;;7.93;2.85;;;;;;;-3.07;83.62;101980.50;5116409;27;20396;-56
2021/12/22 02:58:23;;;;;;;5.22;2.35;;;;;;;-3.08;84.15;101984.69;5124597;27;20043;-56
2021/12/22 03:01:04;;;;;;;11.23;3.97;;;;;;;-3.09;84.63;101980.41;5118981;27;20415;-56
2021/12/22 03:03:45;;;;;;;7.57;3.33;;;;;;;-3.07;84.68;101985.56;5116881;27;20119;-55
2021/12/22 03:06:19;;;;;;;6.88;2.70;;;;;;;-3.04;84.29;101976.50;5123072;27;20145;-55
2021/12/22 03:08:46;;;;;;;7.07;3.65;;;;;;;-3.02;84.53;101976.59;5123616;27;20073;-56
2021/12/22 03:11:13;;;;;;;5.43;2.67;;;;;;;-3.00;85.06;101982.66;5112906;27;20062;-56
2021/12/22 03:13:40;;;;;;;9.80;2.88;;;;;;;-2.96;84.94;101979.53;5112257;27;20047;-54
2021/12/22 03:16:07;;;;;;;8.40;2.90;;;;;;;-2.94;85.47;101983.06;5114643;27;20058;-55
2021/12/22 03:18:35;;;;;;;5.32;2.60;;;;;;;-2.91;85.40;101979.06;5113535;27;20043;-53
2021/12/22 03:21:14;;;;;;;6.18;2.80;;;;;;;-2.88;86.05;101983.47;5114570;27;20411;-55
2021/12/22 03:23:43;;;;;;;5.97;2.45;;;;;;;-2.86;85.93;101972.63;5116020;27;20210;-55
2021/12/22 03:26:10;;;;;;;7.47;2.92;;;;;;;-2.83;86.08;101977.03;5120146;27;20062;-55
2021/12/22 03:28:37;;;;;;;5.15;2.15;;;;;;;-2.80;86.24;101982.28;5121305;27;20062;-56
2021/12/22 03:31:04;;;;;;;5.30;2.08;;;;;;;-2.77;86.35;101982.50;5125045;27;20519;-56
2021/12/22 03:33:31;;;;;;;3.65;2.08;;;;;;;-2.73;85.62;101979.38;5118079;27;20085;-56
2021/12/22 03:35:58;;;;;;;8.27;2.30;;;;;;;-2.69;84.76;101981.34;5112984;27;20047;-56
2021/12/22 03:38:25;;;;;;;5.32;2.08;;;;;;;-2.67;84.48;101979.78;5121138;27;20054;-55
2021/12/22 03:40:54;;;;;;;5.53;2.50;;;;;;;-2.66;84.13;101981.53;5113531;27;20047;-55
2021/12/22 03:43:21;;;;;;;6.80;2.75;;;;;;;-2.64;83.46;101985.03;5124650;27;20055;-56
2021/12/22 03:45:48;;;;;;;5.90;2.03;;;;;;;-2.65;83.01;101983.28;5114279;27;20530;-56
2021/12/22 03:48:17;;;;;;;5.05;2.40;;;;;;;-2.66;82.35;101981.53;5117805;27;20108;-56
2021/12/22 03:50:45;;;;;;;7.03;2.58;;;;;;;-2.70;81.25;101984.66;5113747;27;20169;-56
2021/12/22 03:53:13;;;;;;;5.80;2.30;;;;;;;-2.72;81.48;101981.13;5115931;27;20078;-56
2021/12/22 03:55:40;;;;;;;4.45;1.75;;;;;;;-2.74;81.15;101985.22;5122454;27;20070;-56
2021/12/22 03:58:09;;;;;;;3.97;1.50;;;;;;;-2.76;80.92;101983.38;5109926;27;20047;-56
2021/12/22 04:00:38;;;;;;;4.50;1.60;;;;;;;-2.79;80.98;101986.59;5113227;27;20057;-54
2021/12/22 04:03:05;;;;;;;3.63;1.52;;;;;;;-2.81;81.63;101984.75;5111679;27;20051;-56
2021/12/22 04:05:32;;;;;;;4.68;1.77;;;;;;;-2.84;82.02;101987.97;5114849;27;20047;-56
2021/12/22 04:07:59;;;;;;;6.40;1.60;;;;;;;-2.85;81.74;101983.66;5123680;27;20074;-55
2021/12/22 04:10:26;;;;;;;6.20;1.50;;;;;;;-2.89;81.30;101987.66;5116520;27;20047;-55
2021/12/22 04:12:55;;;;;;;3.40;1.27;;;;;;;-2.90;81.99;101979.94;5119546;27;20054;-56
2021/12/22 04:15:26;;;;;;;3.58;1.60;;;;;;;-2.90;81.62;101985.03;5115564;27;20057;-56
2021/12/22 04:17:54;;;;;;;3.13;1.50;;;;;;;-2.89;81.40;101991.84;5113522;27;20043;-56
2021/12/22 04:20:21;;;;;;;5.35;1.70;;;;;;;-2.94;80.77;101993.22;5114760;27;20058;-56
2021/12/22 04:22:49;;;;;;;5.90;2.40;;;;;;;-2.98;80.84;101997.22;5110124;27;20047;-54
2021/12/22 04:25:20;;;;;;;14.93;3.78;;;;;;;-2.99;81.68;101995.44;5115481;27;20047;-55
2021/12/22 04:27:48;;;;;;;8.05;2.90;;;;;;;-3.01;81.13;101991.94;5113538;27;20128;-53
2021/12/22 04:30:15;;;;;;;7.97;3.15;;;;;;;-3.04;80.58;101998.47;5121478;28;20054;-56
2021/12/22 04:32:44;;;;;;;7.20;3.13;;;;;;;-3.11;79.97;101998.84;5121957;28;20063;-55
2021/12/22 04:35:11;;;;;;;6.53;2.15;;;;;;;-3.13;80.48;102010.50;5117271;27;20047;-55
2021/12/22 04:37:38;;;;;;;6.30;2.15;;;;;;;-3.17;80.63;102015.38;5115026;27;20058;-55
2021/12/22 04:40:07;;;;;;;5.70;1.83;;;;;;;-3.23;80.62;102009.00;5120089;28;20051;-56
2021/12/22 04:42:34;;;;;;;7.70;2.63;;;;;;;-3.30;81.18;102012.78;5114871;28;20048;-56
2021/12/22 04:45:05;;;;;;;6.10;1.60;;;;;;;-3.35;81.38;102014.13;5112224;28;20054;-56
2021/12/22 04:47:33;;;;;;;6.60;3.35;;;;;;;-3.35;81.42;102009.06;5110307;28;20496;-55
2021/12/22 04:50:02;;;;;;;4.00;1.80;;;;;;;-3.33;81.53;102007.50;5114510;28;20039;-55
2021/12/22 04:52:37;;;;;;;4.47;2.15;;;;;;;-3.32;81.18;102003.31;5121640;27;20407;-57
2021/12/22 04:55:05;;;;;;;4.70;2.17;;;;;;;-3.33;81.25;102004.09;5122926;27;20493;-55
2021/12/22 04:57:33;;;;;;;6.22;2.67;;;;;;;-3.32;80.55;102008.41;5116731;28;20758;-55
2021/12/22 05:00:00;;;;;;;8.45;2.67;;;;;;;-3.34;80.64;102003.22;5119119;27;20055;-55
2021/12/22 05:02:28;;;;;;;8.18;3.40;;;;;;;-3.33;80.39;102012.59;5115380;28;20047;-56
2021/12/22 05:04:55;;;;;;;6.00;2.72;;;;;;;-3.36;79.67;102016.56;5113241;27;20047;-55
2021/12/22 05:07:23;;;;;;;5.25;2.50;;;;;;;-3.39;79.63;102017.25;5116142;27;20058;-55
2021/12/22 05:09:50;;;;;;;8.20;2.80;;;;;;;-3.41;79.13;102008.66;5116492;27;20460;-55
2021/12/22 05:12:18;;;;;;;5.78;2.60;;;;;;;-3.43;79.32;102015.28;5113235;28;20051;-56
2021/12/22 05:14:49;;;;;;;9.07;2.72;;;;;;;-3.46;79.02;102010.00;5111905;27;20062;-56
2021/12/22 05:17:21;;;;;;;6.57;2.40;;;;;;;-3.55;79.11;102016.97;5115335;28;20046;-54
2021/12/22 05:19:48;;;;;;;7.88;2.95;;;;;;;-3.58;79.11;102014.25;5119311;27;20035;-55
2021/12/22 05:22:15;;;;;;;10.90;3.25;;;;;;;-3.61;79.07;102014.03;5124069;27;20051;-57
2021/12/22 05:24:44;;;;;;;6.80;3.08;;;;;;;-3.66;79.33;102012.81;5128041;27;20047;-56
2021/12/22 05:27:13;;;;;;;7.38;2.72;;;;;;;-3.69;79.30;102015.13;5126045;27;20419;-55
2021/12/22 05:29:41;;;;;;;6.85;3.25;;;;;;;-3.69;79.68;102022.72;5119402;27;20238;-56
2021/12/22 05:32:08;;;;;;;8.55;3.20;;;;;;;-3.69;80.53;102022.72;5114349;27;20518;-55
2021/12/22 05:34:35;;;;;;;8.57;2.97;;;;;;;-3.71;79.59;102022.63;5116622;27;20043;-57
2021/12/22 05:37:03;;;;;;;10.27;3.15;;;;;;;-3.71;79.83;102027.69;5116152;27;20132;-55
2021/12/22 05:39:30;;;;;;;7.32;3.00;;;;;;;-3.70;79.76;102033.63;5118753;27;20052;-56
2021/12/22 05:41:59;;;;;;;6.13;2.28;;;;;;;-3.71;79.88;102026.81;5123439;27;20059;-56
2021/12/22 05:44:26;;;;;;;8.00;3.05;;;;;;;-3.69;79.67;102030.31;5132740;27;20043;-57
2021/12/22 05:46:53;;;;;;;8.68;3.13;;;;;;;-3.71;79.02;102026.81;5123850;27;20049;-56
2021/12/22 05:49:21;;;;;;;7.65;2.65;;;;;;;-3.69;79.15;102027.78;5118202;27;20487;-56
2021/12/22 05:51:48;;;;;;;7.07;2.85;;;;;;;-3.71;78.63;102026.81;5117648;27;20420;-56
2021/12/22 05:54:15;;;;;;;5.18;2.60;;;;;;;-3.69;79.27;102023.59;5127587;27;20047;-55
2021/12/22 05:56:42;;;;;;;7.05;2.72;;;;;;;-3.67;79.54;102026.25;5119217;27;20047;-56
2021/12/22 05:59:10;;;;;;;5.55;2.38;;;;;;;-3.65;78.66;102027.22;5117339;27;20043;-55
2021/12/22 06:01:37;;;;;;;9.48;3.17;;;;;;;-3.64;78.75;102034.97;5114587;27;20089;-55
2021/12/22 06:04:06;;;;;;;9.18;2.90;;;;;;;-3.61;78.50;102029.25;5115665;27;20062;-56
2021/12/22 06:06:34;;;;;;;7.82;2.75;;;;;;;-3.60;77.66;102031.00;5119252;27;20048;-56
2021/12/22 06:09:01;;;;;;;7.75;3.30;;;;;;;-3.59;78.07;102035.28;5123169;27;20043;-57
2021/12/22 06:11:28;;;;;;;7.55;3.55;;;;;;;-3.57;77.75;102042.22;5118431;27;20071;-57
2021/12/22 06:13:57;;;;;;;9.30;3.83;;;;;;;-3.54;78.31;102041.56;5122673;27;20054;-57
2021/12/22 06:16:26;;;;;;;10.25;4.75;;;;;;;-3.57;77.40;102037.16;5119568;27;20047;-56
2021/12/22 06:18:57;;;;;;;10.82;4.15;;;;;;;-3.57;77.21;102047.28;5117200;27;20047;-55
2021/12/22 06:21:25;;;;;;;8.75;3.63;;;;;;;-3.54;77.63;102051.69;5119423;27;20471;-57
2021/12/22 06:23:52;;;;;;;6.35;2.38;;;;;;;-3.56;77.43;102053.25;5115562;27;20051;-57
2021/12/22 06:26:20;;;;;;;6.53;2.50;;;;;;;-3.57;77.00;102057.44;5116453;27;20062;-58
2021/12/22 06:28:47;;;;;;;8.60;3.00;;;;;;;-3.57;77.00;102061.63;5116331;27;20051;-57
2021/12/22 06:31:14;;;;;;;15.40;3.20;;;;;;;-3.60;77.26;102066.47;5116134;27;20055;-57
2021/12/22 06:33:43;;;;;;;10.85;2.88;;;;;;;-3.63;77.05;102066.25;5116816;27;20047;-56
2021/12/22 06:36:10;;;;;;;8.25;2.55;;;;;;;-3.64;77.46;102064.47;5112897;27;20044;-54
2021/12/22 06:38:39;;;;;;;8.20;2.72;;;;;;;-3.64;77.84;102069.53;5120634;27;20054;-56
2021/12/22 06:41:06;;;;;;;14.90;3.65;;;;;;;-3.62;78.13;102063.84;5114306;27;20043;-58
2021/12/22 06:43:33;;;;;;;10.25;3.20;;;;;;;-3.59;77.53;102060.63;5112552;27;21960;-56
2021/12/22 06:46:00;;;;;;;19.20;3.80;;;;;;;-3.56;77.22;102068.44;5113915;27;20043;-56
2021/12/22 06:48:27;;;;;;;31.20;4.72;;;;;;;-3.53;77.67;102069.53;5119866;27;20047;-55
2021/12/22 06:50:56;;;;;;;8.95;2.88;;;;;;;-3.49;77.29;102075.69;5112358;27;20052;-57
2021/12/22 06:53:23;;;;;;;6.15;2.53;;;;;;;-3.48;77.32;102077.47;5114973;27;20478;-55
2021/12/22 06:55:50;;;;;;;22.63;5.15;;;;;;;-3.44;77.50;102076.91;5106234;27;20047;-56
2021/12/22 06:58:18;;;;;;;15.20;4.28;;;;;;;-3.43;78.40;102067.63;5118924;27;20050;-55
2021/12/22 07:00:45;;;;;;;14.73;3.63;;;;;;;-3.34;78.47;102081.81;5112287;27;20127;-56
2021/12/22 07:03:13;;;;;;;16.42;3.95;;;;;;;-3.32;77.83;102076.84;5113936;27;20047;-56
2021/12/22 07:05:40;;;;;;;12.23;3.28;;;;;;;-3.28;77.90;102071.22;5111609;27;20073;-56
2021/12/22 07:08:08;;;;;;;9.75;3.42;;;;;;;-3.26;77.40;102075.63;5114088;27;20384;-56
2021/12/22 07:10:35;;;;;;;13.48;4.00;;;;;;;-3.23;77.44;102074.94;5114005;27;20762;-56
2021/12/22 07:13:03;;;;;;;18.08;4.40;;;;;;;-3.21;77.16;102079.34;5114861;27;20547;-55
2021/12/22 07:15:30;;;;;;;14.50;4.43;;;;;;;-3.18;78.15;102079.56;5114621;27;20047;-55
2021/12/22 07:17:57;;;;;;;10.80;3.75;;;;;;;-3.15;78.29;102081.41;5114998;27;20055;-56
2021/12/22 07:20:24;;;;;;;20.48;5.22;;;;;;;-3.12;78.52;102085.81;5119345;27;20052;-57
2021/12/22 07:22:52;;;;;;;14.50;4.57;;;;;;;-3.11;78.08;102074.94;5115512;27;20051;-55
2021/12/22 07:25:24;;;;;;;14.57;5.15;;;;;;;-3.11;78.40;102085.97;5112327;27;20055;-55
2021/12/22 07:27:51;;;;;;;17.65;6.57;;;;;;;-3.08;78.56;102090.34;5116759;27;20070;-57
2021/12/22 07:30:18;;;;;;;11.63;4.15;;;;;;;-3.06;78.50;102079.53;5114819;27;20043;-57
2021/12/22 07:32:45;;;;;;;10.85;4.38;;;;;;;-3.01;78.60;102087.47;5111142;27;20131;-56
2021/12/22 07:35:18;;;;;;;11.88;4.45;;;;;;;-3.02;78.74;102086.56;5115260;27;20074;-55
2021/12/22 07:38:05;;;;;;;21.27;4.80;;;;;;;-2.99;78.49;102093.50;5113627;27;20147;-55
2021/12/22 07:40:33;;;;;;;31.35;7.22;;;;;;;-2.98;78.85;102086.00;5110801;27;20057;-56
2021/12/22 07:43:00;;;;;;;29.75;7.63;;;;;;;-2.95;78.58;102092.94;5111510;27;20101;-55
2021/12/22 07:45:28;;;;;;;20.48;5.97;;;;;;;-2.94;78.25;102095.59;5115148;27;20046;-55
2021/12/22 07:47:55;;;;;;;28.13;6.47;;;;;;;-2.93;77.49;102096.47;5115606;27;20052;-56
2021/12/22 07:50:22;;;;;;;20.67;6.25;;;;;;;-2.94;77.03;102089.63;5109937;27;20046;-56
2021/12/22 07:52:49;;;;;;;11.15;4.85;;;;;;;-2.96;76.86;102094.59;5113063;27;20428;-58
2021/12/22 07:55:16;;;;;;;15.05;5.57;;;;;;;-2.95;76.38;102092.94;5116922;27;20135;-55
2021/12/22 07:57:45;;;;;;;22.10;6.22;;;;;;;-2.95;75.77;102098.03;5112417;27;20039;-55
2021/12/22 08:00:13;;;;;;;20.25;4.47;;;;;;;-2.94;75.92;102087.09;5118132;27;21065;-54
2021/12/22 08:02:41;;;;;;;11.75;3.88;;;;;;;-2.93;74.86;102099.00;5114466;27;20058;-57
2021/12/22 08:05:09;;;;;;;8.93;3.38;;;;;;;-2.91;75.30;102089.84;5122190;27;20055;-57
2021/12/22 08:07:36;;;;;;;8.55;3.78;;;;;;;-2.91;75.15;102088.19;5114282;27;20035;-55
2021/12/22 08:10:04;;;;;;;11.15;3.33;;;;;;;-2.89;74.76;102093.34;5115085;27;20047;-56
2021/12/22 08:12:32;;;;;;;11.93;4.72;;;;;;;-2.87;74.39;102092.69;5112820;27;20058;-57
2021/12/22 08:15:01;;;;;;;8.20;3.92;;;;;;;-2.81;75.02;102097.28;5119740;27;20054;-55
2021/12/22 08:17:30;;;;;;;9.95;4.32;;;;;;;-2.76;74.79;102101.00;5120421;27;20921;-57
2021/12/22 08:19:57;;;;;;;14.82;4.63;;;;;;;-2.70;74.73;102101.41;5112925;27;20039;-55
2021/12/22 08:22:24;;;;;;;15.00;4.70;;;;;;;-2.64;75.57;102093.31;5112429;27;20051;-57
2021/12/22 08:24:52;;;;;;;14.70;4.18;;;;;;;-2.58;75.50;102107.34;5116299;27;20472;-57
2021/12/22 08:27:19;;;;;;;10.95;4.30;;;;;;;-2.50;75.59;102101.88;5115144;27;20058;-56
2021/12/22 08:29:46;;;;;;;18.73;4.93;;;;;;;-2.42;75.06;102108.34;5121775;27;20056;-58
2021/12/22 08:32:15;;;;;;;12.90;5.75;;;;;;;-2.33;75.88;102114.88;5119406;27;20055;-58
2021/12/22 08:34:43;;;;;;;8.20;3.78;;;;;;;-2.25;75.49;102107.75;5119739;27;20043;-57
2021/12/22 08:39:57;;;;;;;9.40;4.32;;;;;;;-2.06;75.41;102105.66;5117071;27;20102;-55
2021/12/22 08:42:24;;;;;;;9.68;4.63;;;;;;;-1.98;74.64;102109.56;5117594;27;20472;-57
2021/12/22 08:44:53;;;;;;;11.18;5.00;;;;;;;-1.87;75.20;102111.91;5119506;27;20049;-57
2021/12/22 08:47:21;;;;;;;12.93;4.85;;;;;;;-1.79;75.25;102100.56;5125882;27;20099;-58
2021/12/22 08:49:48;;;;;;;11.63;4.82;;;;;;;-1.71;75.27;102112.09;5117228;27;20475;-58
2021/12/22 08:52:16;;;;;;;21.60;5.88;;;;;;;-1.66;74.20;102105.63;5119413;27;20062;-58
2021/12/22 08:54:43;;;;;;;25.10;5.90;;;;;;;-1.66;72.65;102100.53;5118580;27;20050;-57
2021/12/22 08:57:10;;;;;;;13.40;5.53;;;;;;;-1.63;73.46;102108.34;5126211;27;20096;-58
2021/12/22 08:59:37;;;;;;;12.90;6.30;;;;;;;-1.55;73.13;102112.28;5127435;27;20565;-55
2021/12/22 09:02:05;;;;;;;11.80;5.50;;;;;;;-1.52;71.86;102104.84;5125086;27;20039;-57
2021/12/22 09:04:34;;;;;;;11.00;5.40;;;;;;;-1.47;73.35;102110.22;5125254;27;20054;-56
2021/12/22 09:07:01;;;;;;;13.60;5.65;;;;;;;-1.44;73.73;102105.31;5122393;27;20040;-57
2021/12/22 09:09:28;;;;;;;14.77;6.10;;;;;;;-1.37;74.42;102108.31;5124646;27;20049;-57
2021/12/22 09:11:55;;;;;;;14.60;6.88;;;;;;;-1.31;73.69;102111.25;5114899;27;20084;-57
2021/12/22 09:14:24;;;;;;;19.05;7.38;;;;;;;-1.25;73.82;102112.41;5124672;27;20043;-60
2021/12/22 09:16:51;;;;;;;19.92;8.77;;;;;;;-1.17;74.26;102111.19;5131235;27;20055;-56
2021/12/22 09:19:18;;;;;;;16.73;8.15;;;;;;;-1.10;73.73;102108.25;5123968;27;20051;-58
2021/12/22 09:21:47;;;;;;;16.10;6.95;;;;;;;-1.04;73.63;102113.69;5129078;27;20105;-58
2021/12/22 09:24:14;;;;;;;15.18;6.80;;;;;;;-0.97;73.66;102110.75;5121320;27;20055;-58
2021/12/22 09:26:41;;;;;;;14.30;6.13;;;;;;;-0.90;73.46;102112.00;5125940;27;20046;-57
2021/12/22 09:29:09;;;;;;;12.95;6.18;;;;;;;-0.87;72.52;102102.88;5127725;27;20050;-57
2021/12/22 09:31:36;;;;;;;16.73;6.80;;;;;;;-0.87;72.09;102105.44;5125948;27;20476;-57
2021/12/22 09:34:04;;;;;;;21.77;8.32;;;;;;;-0.82;72.87;102096.41;5127288;27;20062;-55
2021/12/22 09:36:31;;;;;;;15.00;6.95;;;;;;;-0.77;72.04;102094.13;5125803;27;20514;-56
2021/12/22 09:39:00;;;;;;;15.38;7.05;;;;;;;-0.72;72.90;102090.16;5119740;27;20093;-58
2021/12/22 09:41:27;;;;;;;19.33;8.20;;;;;;;-0.66;73.29;102088.84;5124508;27;20065;-57
2021/12/22 09:43:56;;;;;;;20.98;9.30;;;;;;;-0.63;71.96;102083.94;5120736;27;20476;-57
2021/12/22 09:46:24;;;;;;;18.80;7.70;;;;;;;-0.59;71.66;102079.03;5124675;27;20437;-56
2021/12/22 09:48:59;;;;;;;22.33;7.78;;;;;;;-0.61;70.20;102086.56;5127701;27;20050;-58
2021/12/22 09:54:14;;;;;;;53.35;21.25;;;;;;;-0.67;70.33;102096.41;5118177;27;20054;-58
2021/12/22 09:56:43;;;;;;;25.00;9.80;;;;;;;-0.68;70.13;102095.53;5117915;27;20056;-56
2021/12/22 09:59:11;;;;;;;17.38;7.55;;;;;;;-0.74;68.40;102085.00;5119425;27;20050;-57
2021/12/22 10:01:39;;;;;;;19.88;8.35;;;;;;;-0.75;69.17;102088.31;5112949;27;20093;-56
2021/12/22 10:04:06;;;;;;;26.02;9.52;;;;;;;-0.75;69.87;102098.50;5117547;27;20503;-57
2021/12/22 10:06:33;;;;;;;19.92;8.45;;;;;;;-0.78;68.83;102094.91;5115200;27;20058;-57
2021/12/22 10:09:03;;;;;;;24.38;10.57;;;;;;;-0.81;69.98;102099.81;5107271;27;20058;-58
2021/12/22 10:11:34;;;;;;;31.10;11.48;;;;;;;-0.84;70.33;102097.97;5108187;27;20051;-56
2021/12/22 10:14:01;;;;;;;36.42;10.25;;;;;;;-0.80;70.50;102096.47;5102168;27;20052;-56
2021/12/22 10:16:30;;;;;;;30.75;10.88;;;;;;;-0.75;69.78;102093.41;5110645;27;20048;-55
2021/12/22 10:19:07;;;;;;;22.88;7.88;;;;;;;-0.69;69.08;102091.22;5114243;27;20492;-57
2021/12/22 10:21:37;;;;;;;20.40;8.85;;;;;;;-0.71;68.46;102095.34;5108397;27;20377;-56
2021/12/22 10:24:07;;;;;;;38.15;13.60;;;;;;;-0.72;68.11;102088.50;5119333;27;20078;-56
2021/12/22 10:26:35;;;;;;;33.03;11.88;;;;;;;-0.75;67.73;102080.69;5107535;27;20174;-57
2021/12/22 10:29:06;;;;;;;23.20;11.55;;;;;;;-0.76;68.40;102081.47;5114075;27;20047;-54
2021/12/22 10:31:35;;;;;;;34.78;13.65;;;;;;;-0.76;67.98;102081.47;5117076;27;20050;-55
2021/12/22 10:34:07;;;;;;;45.90;16.13;;;;;;;-0.77;68.46;102084.81;5109394;27;20400;-56
2021/12/22 10:36:45;;;;;;;29.35;14.32;;;;;;;-0.85;68.73;102085.16;5108411;27;20100;-56
2021/12/22 10:39:22;;;;;;;26.35;11.55;;;;;;;-0.95;69.50;102078.66;5109428;27;20746;-56
2021/12/22 10:41:51;;;;;;;30.63;12.95;;;;;;;-1.03;70.25;102069.69;5114698;27;20373;-55
2021/12/22 10:44:19;;;;;;;35.63;13.55;;;;;;;-1.06;69.82;102079.63;5114635;27;20469;-57
2021/12/22 10:46:47;;;;;;;35.55;15.00;;;;;;;-1.07;70.30;102082.97;5112260;27;20051;-55
2021/12/22 10:49:20;;;;;;;36.05;16.83;;;;;;;-1.06;70.87;102077.97;5111399;27;20425;-55
2021/12/22 10:51:56;;;;;;;28.60;13.00;;;;;;;-1.03;70.88;102072.22;5102867;27;20048;-57
2021/12/22 10:54:32;;;;;;;30.25;14.50;;;;;;;-1.02;70.92;102071.44;5097788;27;20095;-57
2021/12/22 10:57:03;;;;;;;32.30;14.55;;;;;;;-0.99;70.84;102071.63;5100747;27;20711;-56
2021/12/22 10:59:41;;;;;;;35.60;14.65;;;;;;;-0.97;70.73;102070.03;5104618;27;20408;-57
2021/12/22 11:02:10;;;;;;;31.85;13.10;;;;;;;-0.97;71.06;102060.72;5097615;27;20061;-56
2021/12/22 11:04:43;;;;;;;34.75;13.73;;;;;;;-0.94;71.16;102064.25;5100519;27;20071;-58
2021/12/22 11:07:15;;;;;;;29.77;12.93;;;;;;;-0.92;71.42;102058.47;5103554;27;20047;-57
2021/12/22 11:09:42;;;;;;;37.35;14.98;;;;;;;-0.89;71.30;102062.84;5100580;27;20125;-55
2021/12/22 11:12:13;;;;;;;30.38;13.90;;;;;;;-0.87;71.90;102057.06;5096258;27;20106;-56
2021/12/22 11:14:44;;;;;;;31.10;13.10;;;;;;;-0.86;71.55;102048.63;5096261;27;20047;-58
2021/12/22 11:17:13;;;;;;;34.95;15.18;;;;;;;-0.91;71.91;102054.25;5098463;27;20056;-57
2021/12/22 11:19:52;;;;;;;30.80;14.15;;;;;;;-0.94;72.25;102049.84;5105780;27;20419;-56
2021/12/22 11:22:24;;;;;;;28.80;13.88;;;;;;;-0.97;71.78;102055.66;5095768;27;20098;-57
2021/12/22 11:24:53;;;;;;;35.45;12.43;;;;;;;-0.93;71.98;102046.53;5096566;27;20154;-55
2021/12/22 11:27:24;;;;;;;35.15;13.73;;;;;;;-0.88;72.32;102049.34;5096005;28;20494;-56
2021/12/22 11:29:54;;;;;;;35.45;14.27;;;;;;;-0.85;72.06;102050.38;5094453;28;20370;-57
2021/12/22 11:32:22;;;;;;;30.73;12.98;;;;;;;-0.86;72.23;102048.63;5092465;28;20051;-57
2021/12/22 11:34:52;;;;;;;40.88;14.50;;;;;;;-0.83;72.51;102053.91;5091880;28;20105;-57
2021/12/22 11:37:20;;;;;;;35.20;13.73;;;;;;;-0.84;71.91;102041.97;5102153;28;20048;-56